sensor_id;sensor_type;location;lat;lon;timestamp;pressure;altitude;pressure_sealevel;temperature;humidity
72548;BME280;60570;50.848;6.776;2023-01-25T00:00:05;102536.47;;;5.06;67.11
72548;BME280;60570;50.848;6.776;2023-01-25T00:01:06;102547.81;;;5.09;66.88
72548;BME280;60570;50.848;6.776;2023-01-25T00:02:06;102540.91;;;5.07;67.02
72548;BME280;60570;50.848;6.776;2023-01-25T00:03:07;102539.22;;;5.06;67.39
72548;BME280;60570;50.848;6.776;2023-01-25T00:04:08;102546.41;;;5.07;66.80
72548;BME280;60570;50.848;6.776;2023-01-25T00:05:08;102542.41;;;5.14;66.89
72548;BME280;60570;50.848;6.776;2023-01-25T00:06:09;102543.00;;;5.16;66.57
72548;BME280;60570;50.848;6.776;2023-01-25T00:07:09;102538.38;;;5.05;67.09
72548;BME280;60570;50.848;6.776;2023-01-25T00:08:10;102548.56;;;5.05;66.88
72548;BME280;60570;50.848;6.776;2023-01-25T00:09:10;102535.28;;;5.02;67.34
72548;BME280;60570;50.848;6.776;2023-01-25T00:10:11;102535.72;;;5.10;66.84
72548;BME280;60570;50.848;6.776;2023-01-25T00:11:11;102535.72;;;5.10;66.63
72548;BME280;60570;50.848;6.776;2023-01-25T00:12:12;102536.06;;;5.14;66.60
72548;BME280;60570;50.848;6.776;2023-01-25T00:13:12;102538.22;;;5.12;66.63
72548;BME280;60570;50.848;6.776;2023-01-25T00:14:13;102531.06;;;5.11;66.65
72548;BME280;60570;50.848;6.776;2023-01-25T00:15:14;102536.63;;;5.16;66.62
72548;BME280;60570;50.848;6.776;2023-01-25T00:16:14;102529.88;;;5.07;66.92
72548;BME280;60570;50.848;6.776;2023-01-25T00:17:15;102536.31;;;5.12;66.69
72548;BME280;60570;50.848;6.776;2023-01-25T00:18:15;102532.72;;;5.12;66.76
72548;BME280;60570;50.848;6.776;2023-01-25T00:19:16;102535.47;;;5.12;67.03
72548;BME280;60570;50.848;6.776;2023-01-25T00:20:16;102531.66;;;5.13;66.68
72548;BME280;60570;50.848;6.776;2023-01-25T00:21:19;102530.88;;;5.17;66.61
72548;BME280;60570;50.848;6.776;2023-01-25T00:22:20;102539.13;;;5.17;66.59
72548;BME280;60570;50.848;6.776;2023-01-25T00:23:21;102534.47;;;5.18;66.51
72548;BME280;60570;50.848;6.776;2023-01-25T00:24:21;102534.56;;;5.06;67.00
72548;BME280;60570;50.848;6.776;2023-01-25T00:25:22;102525.13;;;5.02;67.36
72548;BME280;60570;50.848;6.776;2023-01-25T00:26:22;102534.38;;;4.96;67.57
72548;BME280;60570;50.848;6.776;2023-01-25T00:27:23;102530.03;;;5.00;67.04
72548;BME280;60570;50.848;6.776;2023-01-25T00:28:23;102522.44;;;5.07;67.61
72548;BME280;60570;50.848;6.776;2023-01-25T00:29:24;102524.59;;;5.05;66.85
72548;BME280;60570;50.848;6.776;2023-01-25T00:30:24;102526.63;;;5.10;67.16
72548;BME280;60570;50.848;6.776;2023-01-25T00:32:52;102518.09;;;5.11;67.14
72548;BME280;60570;50.848;6.776;2023-01-25T00:34:36;102520.13;;;5.16;66.68
72548;BME280;60570;50.848;6.776;2023-01-25T00:35:20;102523.88;;;5.10;66.72
72548;BME280;60570;50.848;6.776;2023-01-25T00:36:39;102514.53;;;5.11;66.69
72548;BME280;60570;50.848;6.776;2023-01-25T00:37:46;102519.69;;;5.07;66.97
72548;BME280;60570;50.848;6.776;2023-01-25T00:38:52;102520.78;;;5.06;66.77
72548;BME280;60570;50.848;6.776;2023-01-25T00:39:52;102517.50;;;5.09;67.03
72548;BME280;60570;50.848;6.776;2023-01-25T00:40:53;102515.34;;;5.11;66.66
72548;BME280;60570;50.848;6.776;2023-01-25T00:41:54;102506.00;;;5.12;66.61
72548;BME280;60570;50.848;6.776;2023-01-25T00:42:54;102514.28;;;5.12;66.82
72548;BME280;60570;50.848;6.776;2023-01-25T00:43:55;102509.84;;;5.11;66.85
72548;BME280;60570;50.848;6.776;2023-01-25T00:44:56;102515.00;;;5.08;66.86
72548;BME280;60570;50.848;6.776;2023-01-25T00:46:00;102514.59;;;4.99;67.21
72548;BME280;60570;50.848;6.776;2023-01-25T00:47:00;102508.16;;;4.94;67.78
72548;BME280;60570;50.848;6.776;2023-01-25T00:48:01;102509.50;;;5.08;66.90
72548;BME280;60570;50.848;6.776;2023-01-25T00:49:01;102507.59;;;5.08;67.02
72548;BME280;60570;50.848;6.776;2023-01-25T00:50:02;102508.91;;;5.06;66.88
72548;BME280;60570;50.848;6.776;2023-01-25T00:51:03;102508.44;;;5.09;67.25
72548;BME280;60570;50.848;6.776;2023-01-25T00:52:04;102505.75;;;5.14;66.89
72548;BME280;60570;50.848;6.776;2023-01-25T00:53:04;102504.50;;;5.05;66.94
72548;BME280;60570;50.848;6.776;2023-01-25T00:54:05;102499.00;;;5.05;67.17
72548;BME280;60570;50.848;6.776;2023-01-25T00:55:05;102494.66;;;5.09;66.94
72548;BME280;60570;50.848;6.776;2023-01-25T00:56:06;102496.16;;;5.16;66.80
72548;BME280;60570;50.848;6.776;2023-01-25T00:57:07;102500.84;;;5.16;66.86
72548;BME280;60570;50.848;6.776;2023-01-25T00:58:08;102499.19;;;5.15;66.79
72548;BME280;60570;50.848;6.776;2023-01-25T00:59:09;102496.06;;;5.11;66.86
72548;BME280;60570;50.848;6.776;2023-01-25T01:00:10;102499.41;;;5.13;66.83
72548;BME280;60570;50.848;6.776;2023-01-25T01:01:11;102494.22;;;5.17;66.38
72548;BME280;60570;50.848;6.776;2023-01-25T01:02:12;102499.81;;;5.05;66.85
72548;BME280;60570;50.848;6.776;2023-01-25T01:03:12;102494.72;;;5.14;66.96
72548;BME280;60570;50.848;6.776;2023-01-25T01:04:13;102495.00;;;5.12;66.71
72548;BME280;60570;50.848;6.776;2023-01-25T01:05:14;102498.16;;;5.04;66.88
72548;BME280;60570;50.848;6.776;2023-01-25T01:06:14;102500.41;;;5.07;67.21
72548;BME280;60570;50.848;6.776;2023-01-25T01:07:15;102491.16;;;4.97;67.17
72548;BME280;60570;50.848;6.776;2023-01-25T01:08:15;102495.88;;;5.01;67.12
72548;BME280;60570;50.848;6.776;2023-01-25T01:09:17;102492.06;;;5.02;67.04
72548;BME280;60570;50.848;6.776;2023-01-25T01:10:17;102488.00;;;5.05;67.33
72548;BME280;60570;50.848;6.776;2023-01-25T01:11:18;102486.63;;;5.07;67.21
72548;BME280;60570;50.848;6.776;2023-01-25T01:12:18;102491.06;;;5.08;67.04
72548;BME280;60570;50.848;6.776;2023-01-25T01:13:19;102486.47;;;5.14;66.97
72548;BME280;60570;50.848;6.776;2023-01-25T01:14:20;102490.56;;;5.11;66.62
72548;BME280;60570;50.848;6.776;2023-01-25T01:15:21;102490.41;;;5.18;66.86
72548;BME280;60570;50.848;6.776;2023-01-25T01:16:22;102484.88;;;5.18;66.63
72548;BME280;60570;50.848;6.776;2023-01-25T01:17:22;102483.66;;;5.09;66.91
72548;BME280;60570;50.848;6.776;2023-01-25T01:18:23;102485.03;;;5.11;67.09
72548;BME280;60570;50.848;6.776;2023-01-25T01:19:23;102484.72;;;5.08;66.77
72548;BME280;60570;50.848;6.776;2023-01-25T01:20:24;102487.78;;;5.11;66.89
72548;BME280;60570;50.848;6.776;2023-01-25T01:21:24;102492.56;;;5.16;66.86
72548;BME280;60570;50.848;6.776;2023-01-25T01:22:25;102487.00;;;5.11;67.04
72548;BME280;60570;50.848;6.776;2023-01-25T01:23:27;102496.25;;;5.05;67.27
72548;BME280;60570;50.848;6.776;2023-01-25T01:24:28;102488.16;;;5.15;66.93
72548;BME280;60570;50.848;6.776;2023-01-25T01:25:28;102496.50;;;5.20;66.75
72548;BME280;60570;50.848;6.776;2023-01-25T01:26:29;102494.22;;;5.17;66.84
72548;BME280;60570;50.848;6.776;2023-01-25T01:27:29;102491.56;;;5.05;66.85
72548;BME280;60570;50.848;6.776;2023-01-25T01:28:30;102489.22;;;5.14;66.91
72548;BME280;60570;50.848;6.776;2023-01-25T01:29:31;102482.28;;;5.11;66.83
72548;BME280;60570;50.848;6.776;2023-01-25T01:30:31;102490.56;;;5.11;66.88
72548;BME280;60570;50.848;6.776;2023-01-25T01:31:32;102485.41;;;5.15;66.81
72548;BME280;60570;50.848;6.776;2023-01-25T01:32:32;102490.81;;;5.10;67.14
72548;BME280;60570;50.848;6.776;2023-01-25T01:33:33;102496.72;;;5.02;67.14
72548;BME280;60570;50.848;6.776;2023-01-25T01:34:34;102500.19;;;5.09;67.32
72548;BME280;60570;50.848;6.776;2023-01-25T01:35:34;102489.97;;;5.09;67.14
72548;BME280;60570;50.848;6.776;2023-01-25T01:36:35;102494.41;;;5.10;66.81
72548;BME280;60570;50.848;6.776;2023-01-25T01:37:35;102492.81;;;5.14;67.09
72548;BME280;60570;50.848;6.776;2023-01-25T01:38:36;102489.22;;;5.14;66.68
72548;BME280;60570;50.848;6.776;2023-01-25T01:39:36;102491.31;;;5.07;67.17
72548;BME280;60570;50.848;6.776;2023-01-25T01:40:37;102488.66;;;5.12;67.08
72548;BME280;60570;50.848;6.776;2023-01-25T01:41:37;102490.66;;;5.16;67.03
72548;BME280;60570;50.848;6.776;2023-01-25T01:43:57;102492.31;;;5.17;66.66
72548;BME280;60570;50.848;6.776;2023-01-25T01:44:58;102498.81;;;5.11;66.85
72548;BME280;60570;50.848;6.776;2023-01-25T01:46:04;102491.72;;;5.15;66.80
72548;BME280;60570;50.848;6.776;2023-01-25T01:47:07;102496.06;;;5.11;66.94
72548;BME280;60570;50.848;6.776;2023-01-25T01:48:39;102495.00;;;5.12;67.18
72548;BME280;60570;50.848;6.776;2023-01-25T01:49:40;102488.16;;;5.15;66.64
72548;BME280;60570;50.848;6.776;2023-01-25T01:50:43;102490.31;;;5.13;67.19
72548;BME280;60570;50.848;6.776;2023-01-25T01:51:58;102494.47;;;5.15;66.76
72548;BME280;60570;50.848;6.776;2023-01-25T01:53:00;102485.41;;;5.15;67.06
72548;BME280;60570;50.848;6.776;2023-01-25T01:55:15;102493.47;;;5.21;66.55
72548;BME280;60570;50.848;6.776;2023-01-25T01:56:22;102488.72;;;5.17;67.03
72548;BME280;60570;50.848;6.776;2023-01-25T01:57:34;102491.91;;;5.09;67.07
72548;BME280;60570;50.848;6.776;2023-01-25T01:58:35;102484.72;;;5.08;67.07
72548;BME280;60570;50.848;6.776;2023-01-25T01:59:41;102486.03;;;5.05;66.90
72548;BME280;60570;50.848;6.776;2023-01-25T02:00:43;102490.22;;;5.08;66.92
72548;BME280;60570;50.848;6.776;2023-01-25T02:01:45;102494.66;;;5.09;66.90
72548;BME280;60570;50.848;6.776;2023-01-25T02:02:47;102494.41;;;5.10;67.28
72548;BME280;60570;50.848;6.776;2023-01-25T02:03:49;102492.97;;;5.08;67.17
72548;BME280;60570;50.848;6.776;2023-01-25T02:04:52;102486.72;;;5.12;66.98
72548;BME280;60570;50.848;6.776;2023-01-25T02:05:57;102485.41;;;5.15;66.71
72548;BME280;60570;50.848;6.776;2023-01-25T02:07:06;102482.72;;;5.03;67.12
72548;BME280;60570;50.848;6.776;2023-01-25T02:08:12;102484.66;;;5.03;66.96
72548;BME280;60570;50.848;6.776;2023-01-25T02:09:17;102487.72;;;5.06;66.93
72548;BME280;60570;50.848;6.776;2023-01-25T02:10:19;102490.47;;;5.06;67.22
72548;BME280;60570;50.848;6.776;2023-01-25T02:11:21;102486.47;;;5.14;66.94
72548;BME280;60570;50.848;6.776;2023-01-25T02:12:22;102477.31;;;5.08;66.75
72548;BME280;60570;50.848;6.776;2023-01-25T02:13:23;102482.06;;;5.13;67.10
72548;BME280;60570;50.848;6.776;2023-01-25T02:14:26;102483.47;;;5.15;66.50
72548;BME280;60570;50.848;6.776;2023-01-25T02:15:40;102481.22;;;5.12;66.93
72548;BME280;60570;50.848;6.776;2023-01-25T02:16:42;102484.22;;;5.11;66.70
72548;BME280;60570;50.848;6.776;2023-01-25T02:17:43;102481.81;;;5.14;66.70
72548;BME280;60570;50.848;6.776;2023-01-25T02:18:43;102488.06;;;5.10;66.89
72548;BME280;60570;50.848;6.776;2023-01-25T02:21:16;102482.97;;;5.02;67.33
72548;BME280;60570;50.848;6.776;2023-01-25T02:22:21;102474.69;;;5.02;67.60
72548;BME280;60570;50.848;6.776;2023-01-25T02:25:02;102478.63;;;5.06;67.38
72548;BME280;60570;50.848;6.776;2023-01-25T02:26:05;102473.84;;;5.01;67.57
72548;BME280;60570;50.848;6.776;2023-01-25T02:27:06;102472.78;;;5.02;67.62
72548;BME280;60570;50.848;6.776;2023-01-25T02:29:38;102477.56;;;5.07;67.24
72548;BME280;60570;50.848;6.776;2023-01-25T02:30:40;102471.53;;;5.10;67.32
72548;BME280;60570;50.848;6.776;2023-01-25T02:31:45;102472.38;;;5.10;67.04
72548;BME280;60570;50.848;6.776;2023-01-25T02:32:46;102472.84;;;5.07;67.11
72548;BME280;60570;50.848;6.776;2023-01-25T02:33:46;102471.03;;;5.13;66.97
72548;BME280;60570;50.848;6.776;2023-01-25T02:34:47;102469.94;;;5.14;66.61
72548;BME280;60570;50.848;6.776;2023-01-25T02:35:49;102474.28;;;5.10;67.13
72548;BME280;60570;50.848;6.776;2023-01-25T02:36:50;102463.53;;;5.08;66.99
72548;BME280;60570;50.848;6.776;2023-01-25T02:37:51;102469.38;;;5.12;66.94
72548;BME280;60570;50.848;6.776;2023-01-25T02:39:15;102467.19;;;5.14;66.81
72548;BME280;60570;50.848;6.776;2023-01-25T02:40:17;102478.53;;;5.17;66.97
72548;BME280;60570;50.848;6.776;2023-01-25T02:41:32;102463.38;;;5.15;66.68
72548;BME280;60570;50.848;6.776;2023-01-25T02:42:33;102469.94;;;5.14;66.73
72548;BME280;60570;50.848;6.776;2023-01-25T02:43:34;102469.38;;;5.12;67.16
72548;BME280;60570;50.848;6.776;2023-01-25T02:44:36;102458.94;;;5.14;66.94
72548;BME280;60570;50.848;6.776;2023-01-25T02:45:37;102470.53;;;5.16;66.91
72548;BME280;60570;50.848;6.776;2023-01-25T02:46:39;102476.31;;;5.14;66.79
72548;BME280;60570;50.848;6.776;2023-01-25T02:47:40;102471.28;;;5.11;66.98
72548;BME280;60570;50.848;6.776;2023-01-25T02:48:40;102466.69;;;5.17;66.97
72548;BME280;60570;50.848;6.776;2023-01-25T02:49:41;102457.09;;;5.19;66.93
72548;BME280;60570;50.848;6.776;2023-01-25T02:50:42;102462.25;;;5.16;67.06
72548;BME280;60570;50.848;6.776;2023-01-25T02:51:48;102462.19;;;5.11;66.76
72548;BME280;60570;50.848;6.776;2023-01-25T02:52:48;102460.78;;;5.08;67.26
72548;BME280;60570;50.848;6.776;2023-01-25T02:53:49;102450.34;;;5.10;67.09
72548;BME280;60570;50.848;6.776;2023-01-25T02:54:50;102462.19;;;5.11;67.22
72548;BME280;60570;50.848;6.776;2023-01-25T02:55:50;102453.94;;;5.11;66.91
72548;BME280;60570;50.848;6.776;2023-01-25T02:56:51;102461.84;;;5.07;66.93
72548;BME280;60570;50.848;6.776;2023-01-25T02:57:51;102458.75;;;5.04;67.40
72548;BME280;60570;50.848;6.776;2023-01-25T02:58:52;102453.09;;;5.10;67.19
72548;BME280;60570;50.848;6.776;2023-01-25T02:59:52;102460.44;;;5.05;67.37
72548;BME280;60570;50.848;6.776;2023-01-25T03:00:53;102454.78;;;4.95;67.47
72548;BME280;60570;50.848;6.776;2023-01-25T03:01:55;102452.50;;;4.92;67.81
72548;BME280;60570;50.848;6.776;2023-01-25T03:02:55;102451.75;;;4.96;67.31
72548;BME280;60570;50.848;6.776;2023-01-25T03:03:56;102456.19;;;4.97;67.34
72548;BME280;60570;50.848;6.776;2023-01-25T03:04:56;102463.19;;;5.05;67.13
72548;BME280;60570;50.848;6.776;2023-01-25T03:05:56;102459.66;;;5.09;67.07
72548;BME280;60570;50.848;6.776;2023-01-25T03:06:57;102465.97;;;5.05;67.31
72548;BME280;60570;50.848;6.776;2023-01-25T03:07:57;102461.50;;;5.04;67.12
72548;BME280;60570;50.848;6.776;2023-01-25T03:08:58;102458.59;;;4.94;67.41
72548;BME280;60570;50.848;6.776;2023-01-25T03:09:58;102456.53;;;5.01;67.47
72548;BME280;60570;50.848;6.776;2023-01-25T03:11:01;102464.84;;;5.06;66.96
72548;BME280;60570;50.848;6.776;2023-01-25T03:12:01;102464.28;;;5.04;67.21
72548;BME280;60570;50.848;6.776;2023-01-25T03:13:02;102459.44;;;5.11;67.36
72548;BME280;60570;50.848;6.776;2023-01-25T03:14:03;102465.19;;;5.09;67.12
72548;BME280;60570;50.848;6.776;2023-01-25T03:15:04;102465.13;;;5.04;66.93
72548;BME280;60570;50.848;6.776;2023-01-25T03:16:07;102457.44;;;5.06;67.12
72548;BME280;60570;50.848;6.776;2023-01-25T03:17:08;102465.84;;;5.00;67.33
72548;BME280;60570;50.848;6.776;2023-01-25T03:18:09;102454.41;;;5.08;67.31
72548;BME280;60570;50.848;6.776;2023-01-25T03:19:09;102462.63;;;5.03;67.37
72548;BME280;60570;50.848;6.776;2023-01-25T03:20:10;102459.34;;;5.06;67.00
72548;BME280;60570;50.848;6.776;2023-01-25T03:21:12;102458.19;;;5.02;67.43
72548;BME280;60570;50.848;6.776;2023-01-25T03:22:13;102450.81;;;5.07;67.23
72548;BME280;60570;50.848;6.776;2023-01-25T03:23:13;102459.59;;;5.04;67.26
72548;BME280;60570;50.848;6.776;2023-01-25T03:24:14;102447.84;;;5.09;66.92
72548;BME280;60570;50.848;6.776;2023-01-25T03:25:15;102455.25;;;5.08;67.06
72548;BME280;60570;50.848;6.776;2023-01-25T03:26:20;102454.41;;;5.08;67.30
72548;BME280;60570;50.848;6.776;2023-01-25T03:27:21;102456.59;;;5.06;67.40
72548;BME280;60570;50.848;6.776;2023-01-25T03:28:21;102455.09;;;4.98;67.69
72548;BME280;60570;50.848;6.776;2023-01-25T03:29:22;102451.91;;;4.90;67.49
72548;BME280;60570;50.848;6.776;2023-01-25T03:30:22;102453.53;;;4.86;68.11
72548;BME280;60570;50.848;6.776;2023-01-25T03:31:23;102452.00;;;4.95;67.83
72548;BME280;60570;50.848;6.776;2023-01-25T03:32:23;102451.50;;;4.98;67.43
72548;BME280;60570;50.848;6.776;2023-01-25T03:33:24;102455.44;;;4.85;68.03
72548;BME280;60570;50.848;6.776;2023-01-25T03:34:24;102453.19;;;4.99;67.59
72548;BME280;60570;50.848;6.776;2023-01-25T03:35:25;102457.09;;;5.03;67.55
72548;BME280;60570;50.848;6.776;2023-01-25T03:36:26;102458.59;;;5.10;67.06
72548;BME280;60570;50.848;6.776;2023-01-25T03:37:26;102452.41;;;5.03;67.35
72548;BME280;60570;50.848;6.776;2023-01-25T03:38:29;102454.84;;;5.00;67.43
72548;BME280;60570;50.848;6.776;2023-01-25T03:39:30;102453.59;;;4.91;67.58
72548;BME280;60570;50.848;6.776;2023-01-25T03:40:30;102454.59;;;4.85;67.87
72548;BME280;60570;50.848;6.776;2023-01-25T03:41:30;102455.50;;;4.90;67.67
72548;BME280;60570;50.848;6.776;2023-01-25T03:42:31;102458.94;;;4.97;67.50
72548;BME280;60570;50.848;6.776;2023-01-25T03:43:31;102459.28;;;5.01;67.41
72548;BME280;60570;50.848;6.776;2023-01-25T03:44:32;102458.75;;;5.04;67.58
72548;BME280;60570;50.848;6.776;2023-01-25T03:45:32;102463.44;;;5.03;67.17
72548;BME280;60570;50.848;6.776;2023-01-25T03:46:33;102456.41;;;4.96;67.62
72548;BME280;60570;50.848;6.776;2023-01-25T03:47:33;102453.94;;;4.94;67.60
72548;BME280;60570;50.848;6.776;2023-01-25T03:48:34;102449.25;;;4.95;67.90
72548;BME280;60570;50.848;6.776;2023-01-25T03:49:35;102457.53;;;4.95;67.77
72548;BME280;60570;50.848;6.776;2023-01-25T03:50:35;102453.94;;;4.94;67.45
72548;BME280;60570;50.848;6.776;2023-01-25T03:51:35;102453.19;;;4.99;67.32
72548;BME280;60570;50.848;6.776;2023-01-25T03:52:47;102454.09;;;5.04;67.17
72548;BME280;60570;50.848;6.776;2023-01-25T03:54:00;102444.25;;;5.08;67.30
72548;BME280;60570;50.848;6.776;2023-01-25T03:55:01;102440.75;;;4.96;67.17
72548;BME280;60570;50.848;6.776;2023-01-25T03:56:04;102448.31;;;5.06;67.64
72548;BME280;60570;50.848;6.776;2023-01-25T03:57:08;102446.16;;;5.08;67.21
72548;BME280;60570;50.848;6.776;2023-01-25T03:58:09;102442.25;;;5.04;67.41
72548;BME280;60570;50.848;6.776;2023-01-25T03:59:10;102440.06;;;5.06;67.36
72548;BME280;60570;50.848;6.776;2023-01-25T04:00:11;102442.25;;;5.04;67.28
72548;BME280;60570;50.848;6.776;2023-01-25T04:01:12;102437.84;;;5.03;67.46
72548;BME280;60570;50.848;6.776;2023-01-25T04:02:12;102440.91;;;5.06;67.46
72548;BME280;60570;50.848;6.776;2023-01-25T04:03:14;102440.31;;;5.04;67.30
72548;BME280;60570;50.848;6.776;2023-01-25T04:04:15;102444.72;;;5.05;67.59
72548;BME280;60570;50.848;6.776;2023-01-25T04:05:16;102444.50;;;5.07;67.54
72548;BME280;60570;50.848;6.776;2023-01-25T04:06:16;102438.75;;;5.08;67.17
72548;BME280;60570;50.848;6.776;2023-01-25T04:07:16;102435.72;;;5.10;66.87
72548;BME280;60570;50.848;6.776;2023-01-25T04:08:17;102433.81;;;5.10;67.06
72548;BME280;60570;50.848;6.776;2023-01-25T04:09:18;102436.41;;;5.00;67.37
72548;BME280;60570;50.848;6.776;2023-01-25T04:10:18;102431.81;;;4.89;67.66
72548;BME280;60570;50.848;6.776;2023-01-25T04:11:19;102436.75;;;4.87;67.73
72548;BME280;60570;50.848;6.776;2023-01-25T04:12:19;102441.00;;;4.95;67.89
72548;BME280;60570;50.848;6.776;2023-01-25T04:13:21;102443.16;;;4.93;67.44
72548;BME280;60570;50.848;6.776;2023-01-25T04:14:21;102433.81;;;4.94;67.90
72548;BME280;60570;50.848;6.776;2023-01-25T04:15:22;102433.59;;;4.95;67.56
72548;BME280;60570;50.848;6.776;2023-01-25T04:16:22;102423.81;;;5.04;67.40
72548;BME280;60570;50.848;6.776;2023-01-25T04:17:23;102426.81;;;5.03;67.37
72548;BME280;60570;50.848;6.776;2023-01-25T04:18:23;102417.44;;;5.04;67.52
72548;BME280;60570;50.848;6.776;2023-01-25T04:19:24;102425.06;;;4.97;67.44
72548;BME280;60570;50.848;6.776;2023-01-25T04:20:24;102428.47;;;5.04;67.26
72548;BME280;60570;50.848;6.776;2023-01-25T04:21:25;102420.22;;;5.04;67.31
72548;BME280;60570;50.848;6.776;2023-01-25T04:22:25;102412.78;;;5.04;67.22
72548;BME280;60570;50.848;6.776;2023-01-25T04:23:26;102414.97;;;5.02;67.39
72548;BME280;60570;50.848;6.776;2023-01-25T04:24:26;102412.19;;;5.02;67.55
72548;BME280;60570;50.848;6.776;2023-01-25T04:25:27;102405.78;;;4.97;67.38
72548;BME280;60570;50.848;6.776;2023-01-25T04:26:27;102407.13;;;4.94;67.50
72548;BME280;60570;50.848;6.776;2023-01-25T04:27:27;102408.28;;;4.98;67.71
72548;BME280;60570;50.848;6.776;2023-01-25T04:28:28;102405.84;;;5.02;67.22
72548;BME280;60570;50.848;6.776;2023-01-25T04:29:28;102405.28;;;5.00;67.34
72548;BME280;60570;50.848;6.776;2023-01-25T04:30:29;102402.25;;;5.01;67.23
72548;BME280;60570;50.848;6.776;2023-01-25T04:31:29;102404.19;;;5.01;67.22
72548;BME280;60570;50.848;6.776;2023-01-25T04:32:30;102398.94;;;4.99;67.75
72548;BME280;60570;50.848;6.776;2023-01-25T04:33:31;102401.50;;;5.06;67.44
72548;BME280;60570;50.848;6.776;2023-01-25T04:34:32;102401.19;;;5.02;67.38
72548;BME280;60570;50.848;6.776;2023-01-25T04:35:32;102398.38;;;4.97;67.52
72548;BME280;60570;50.848;6.776;2023-01-25T04:36:32;102395.34;;;4.99;67.54
72548;BME280;60570;50.848;6.776;2023-01-25T04:37:33;102398.44;;;5.02;67.25
72548;BME280;60570;50.848;6.776;2023-01-25T04:38:33;102396.53;;;5.03;67.50
72548;BME280;60570;50.848;6.776;2023-01-25T04:39:34;102400.19;;;5.08;66.97
72548;BME280;60570;50.848;6.776;2023-01-25T04:40:35;102393.44;;;4.99;67.18
72548;BME280;60570;50.848;6.776;2023-01-25T04:41:35;102392.03;;;4.97;67.53
72548;BME280;60570;50.848;6.776;2023-01-25T04:42:35;102387.59;;;4.96;67.76
72548;BME280;60570;50.848;6.776;2023-01-25T04:43:36;102386.84;;;5.00;67.29
72548;BME280;60570;50.848;6.776;2023-01-25T04:44:36;102385.50;;;5.03;67.70
72548;BME280;60570;50.848;6.776;2023-01-25T04:45:37;102385.72;;;5.01;67.50
72548;BME280;60570;50.848;6.776;2023-01-25T04:46:37;102388.59;;;5.06;67.16
72548;BME280;60570;50.848;6.776;2023-01-25T04:47:37;102387.16;;;5.04;67.11
72548;BME280;60570;50.848;6.776;2023-01-25T04:48:38;102385.41;;;4.98;67.37
72548;BME280;60570;50.848;6.776;2023-01-25T04:49:38;102390.09;;;4.97;67.55
72548;BME280;60570;50.848;6.776;2023-01-25T04:50:40;102384.69;;;4.86;68.16
72548;BME280;60570;50.848;6.776;2023-01-25T04:51:40;102387.34;;;4.81;68.21
72548;BME280;60570;50.848;6.776;2023-01-25T04:52:40;102383.91;;;4.90;67.81
72548;BME280;60570;50.848;6.776;2023-01-25T04:53:41;102380.91;;;4.92;68.01
72548;BME280;60570;50.848;6.776;2023-01-25T04:54:41;102382.91;;;4.96;67.65
72548;BME280;60570;50.848;6.776;2023-01-25T04:55:44;102386.56;;;5.02;67.74
72548;BME280;60570;50.848;6.776;2023-01-25T04:56:46;102384.94;;;5.01;67.27
72548;BME280;60570;50.848;6.776;2023-01-25T04:57:49;102382.16;;;5.01;67.43
72548;BME280;60570;50.848;6.776;2023-01-25T04:58:50;102384.25;;;4.94;67.42
72548;BME280;60570;50.848;6.776;2023-01-25T04:59:51;102389.09;;;4.87;67.87
72548;BME280;60570;50.848;6.776;2023-01-25T05:00:52;102382.50;;;4.88;68.19
72548;BME280;60570;50.848;6.776;2023-01-25T05:01:52;102387.53;;;4.91;67.87
72548;BME280;60570;50.848;6.776;2023-01-25T05:02:53;102387.78;;;4.89;67.66
72548;BME280;60570;50.848;6.776;2023-01-25T05:03:53;102391.91;;;4.92;67.89
72548;BME280;60570;50.848;6.776;2023-01-25T05:04:53;102381.69;;;4.87;67.96
72548;BME280;60570;50.848;6.776;2023-01-25T05:05:54;102385.59;;;4.91;67.83
72548;BME280;60570;50.848;6.776;2023-01-25T05:06:54;102393.03;;;4.91;67.62
72548;BME280;60570;50.848;6.776;2023-01-25T05:07:55;102388.09;;;4.93;67.73
72548;BME280;60570;50.848;6.776;2023-01-25T05:08:55;102385.25;;;4.88;67.77
72548;BME280;60570;50.848;6.776;2023-01-25T05:09:56;102377.66;;;4.78;68.25
72548;BME280;60570;50.848;6.776;2023-01-25T05:10:56;102384.28;;;4.77;68.00
72548;BME280;60570;50.848;6.776;2023-01-25T05:11:57;102389.09;;;4.87;67.80
72548;BME280;60570;50.848;6.776;2023-01-25T05:12:57;102385.19;;;4.83;68.11
72548;BME280;60570;50.848;6.776;2023-01-25T05:13:57;102378.69;;;4.89;68.01
72548;BME280;60570;50.848;6.776;2023-01-25T05:14:58;102386.50;;;4.97;67.71
72548;BME280;60570;50.848;6.776;2023-01-25T05:15:58;102381.16;;;4.90;67.47
72548;BME280;60570;50.848;6.776;2023-01-25T05:16:59;102373.69;;;4.86;67.75
72548;BME280;60570;50.848;6.776;2023-01-25T05:17:59;102381.50;;;4.94;67.98
72548;BME280;60570;50.848;6.776;2023-01-25T05:19:00;102382.59;;;4.93;67.54
72548;BME280;60570;50.848;6.776;2023-01-25T05:20:00;102383.19;;;4.95;67.59
72548;BME280;60570;50.848;6.776;2023-01-25T05:21:01;102372.06;;;4.90;67.79
72548;BME280;60570;50.848;6.776;2023-01-25T05:22:02;102374.69;;;4.80;68.24
72548;BME280;60570;50.848;6.776;2023-01-25T05:23:06;102368.72;;;4.88;68.18
72548;BME280;60570;50.848;6.776;2023-01-25T05:24:06;102377.66;;;4.95;67.78
72548;BME280;60570;50.848;6.776;2023-01-25T05:25:07;102371.84;;;4.91;67.73
72548;BME280;60570;50.848;6.776;2023-01-25T05:26:28;102368.31;;;4.96;67.67
72548;BME280;60570;50.848;6.776;2023-01-25T05:27:47;102371.47;;;4.88;67.73
72548;BME280;60570;50.848;6.776;2023-01-25T05:28:48;102369.66;;;4.93;67.45
72548;BME280;60570;50.848;6.776;2023-01-25T05:29:48;102373.59;;;4.97;67.35
72548;BME280;60570;50.848;6.776;2023-01-25T05:30:49;102374.34;;;4.93;67.47
72548;BME280;60570;50.848;6.776;2023-01-25T05:31:49;102369.91;;;4.92;68.08
72548;BME280;60570;50.848;6.776;2023-01-25T05:32:50;102372.31;;;4.88;67.95
72548;BME280;60570;50.848;6.776;2023-01-25T05:33:50;102367.72;;;4.94;67.38
72548;BME280;60570;50.848;6.776;2023-01-25T05:34:51;102367.50;;;4.95;67.43